sensor_id;sensor_type;location;lat;lon;timestamp;temperature;humidity
20829;DHT22;10575;50.124;8.582;2023-09-19T00:00:01;19.20;99.90
20829;DHT22;10575;50.124;8.582;2023-09-19T00:02:27;19.20;99.90
20829;DHT22;10575;50.124;8.582;2023-09-19T00:04:52;19.20;99.90
20829;DHT22;10575;50.124;8.582;2023-09-19T00:07:19;19.20;99.90
20829;DHT22;10575;50.124;8.582;2023-09-19T00:09:44;19.20;99.90
20829;DHT22;10575;50.124;8.582;2023-09-19T00:12:10;19.20;99.90
20829;DHT22;10575;50.124;8.582;2023-09-19T00:14:35;19.20;99.90
20829;DHT22;10575;50.124;8.582;2023-09-19T00:17:02;19.20;99.90
20829;DHT22;10575;50.124;8.582;2023-09-19T00:19:36;19.20;99.90
20829;DHT22;10575;50.124;8.582;2023-09-19T00:22:02;19.30;99.90
20829;DHT22;10575;50.124;8.582;2023-09-19T00:24:28;19.30;99.90
20829;DHT22;10575;50.124;8.582;2023-09-19T00:26:54;19.20;99.90
20829;DHT22;10575;50.124;8.582;2023-09-19T00:29:21;19.20;99.90
20829;DHT22;10575;50.124;8.582;2023-09-19T00:31:46;19.30;99.90
20829;DHT22;10575;50.124;8.582;2023-09-19T00:34:12;19.30;99.90
20829;DHT22;10575;50.124;8.582;2023-09-19T00:36:37;19.30;99.90
20829;DHT22;10575;50.124;8.582;2023-09-19T00:39:08;19.30;99.90
20829;DHT22;10575;50.124;8.582;2023-09-19T00:41:34;19.30;99.90
20829;DHT22;10575;50.124;8.582;2023-09-19T00:44:01;19.30;99.90
20829;DHT22;10575;50.124;8.582;2023-09-19T00:46:27;19.30;99.90
20829;DHT22;10575;50.124;8.582;2023-09-19T00:48:53;19.30;99.90
20829;DHT22;10575;50.124;8.582;2023-09-19T00:51:20;19.30;99.90
20829;DHT22;10575;50.124;8.582;2023-09-19T00:53:46;19.20;99.90
20829;DHT22;10575;50.124;8.582;2023-09-19T00:56:13;19.10;99.90
20829;DHT22;10575;50.124;8.582;2023-09-19T00:58:39;19.10;99.90
20829;DHT22;10575;50.124;8.582;2023-09-19T01:01:05;19.20;99.90
20829;DHT22;10575;50.124;8.582;2023-09-19T01:03:33;19.20;99.90
20829;DHT22;10575;50.124;8.582;2023-09-19T01:05:59;19.30;99.90
20829;DHT22;10575;50.124;8.582;2023-09-19T01:08:26;19.30;99.90
20829;DHT22;10575;50.124;8.582;2023-09-19T01:10:59;19.40;99.90
20829;DHT22;10575;50.124;8.582;2023-09-19T01:13:35;19.40;99.90
20829;DHT22;10575;50.124;8.582;2023-09-19T01:19:07;19.50;99.90
20829;DHT22;10575;50.124;8.582;2023-09-19T01:21:57;19.50;99.90
20829;DHT22;10575;50.124;8.582;2023-09-19T01:27:31;19.40;99.90
20829;DHT22;10575;50.124;8.582;2023-09-19T01:30:23;19.40;99.90
20829;DHT22;10575;50.124;8.582;2023-09-19T01:32:51;19.40;99.90
20829;DHT22;10575;50.124;8.582;2023-09-19T01:35:18;19.30;99.90
20829;DHT22;10575;50.124;8.582;2023-09-19T01:37:44;19.20;99.90
20829;DHT22;10575;50.124;8.582;2023-09-19T01:40:12;19.20;99.90
20829;DHT22;10575;50.124;8.582;2023-09-19T01:46:03;19.10;99.90
20829;DHT22;10575;50.124;8.582;2023-09-19T01:48:41;19.10;99.90
20829;DHT22;10575;50.124;8.582;2023-09-19T01:51:14;19.10;99.90
20829;DHT22;10575;50.124;8.582;2023-09-19T01:53:45;19.10;99.90
20829;DHT22;10575;50.124;8.582;2023-09-19T01:56:36;19.10;99.90
20829;DHT22;10575;50.124;8.582;2023-09-19T01:59:13;19.20;99.90
20829;DHT22;10575;50.124;8.582;2023-09-19T02:01:42;19.20;99.90
20829;DHT22;10575;50.124;8.582;2023-09-19T02:04:10;19.20;99.90
20829;DHT22;10575;50.124;8.582;2023-09-19T02:06:40;19.30;99.90
20829;DHT22;10575;50.124;8.582;2023-09-19T02:09:06;19.30;99.90
20829;DHT22;10575;50.124;8.582;2023-09-19T02:11:32;19.20;99.90
20829;DHT22;10575;50.124;8.582;2023-09-19T02:13:57;19.20;99.90
20829;DHT22;10575;50.124;8.582;2023-09-19T02:16:24;19.10;99.90
20829;DHT22;10575;50.124;8.582;2023-09-19T02:18:50;19.10;99.90
20829;DHT22;10575;50.124;8.582;2023-09-19T02:21:16;19.10;99.90
20829;DHT22;10575;50.124;8.582;2023-09-19T02:23:43;18.90;99.90
20829;DHT22;10575;50.124;8.582;2023-09-19T02:26:09;18.90;99.90
20829;DHT22;10575;50.124;8.582;2023-09-19T02:28:34;18.80;99.90
20829;DHT22;10575;50.124;8.582;2023-09-19T02:31:01;18.70;99.90
20829;DHT22;10575;50.124;8.582;2023-09-19T02:33:27;18.60;99.90
20829;DHT22;10575;50.124;8.582;2023-09-19T02:35:56;18.50;99.90
20829;DHT22;10575;50.124;8.582;2023-09-19T02:38:26;18.50;99.90
20829;DHT22;10575;50.124;8.582;2023-09-19T02:40:52;18.40;99.90
20829;DHT22;10575;50.124;8.582;2023-09-19T02:43:18;18.40;99.90
20829;DHT22;10575;50.124;8.582;2023-09-19T02:45:45;18.30;99.90
20829;DHT22;10575;50.124;8.582;2023-09-19T02:48:12;18.30;99.90
20829;DHT22;10575;50.124;8.582;2023-09-19T02:50:37;18.30;99.90
20829;DHT22;10575;50.124;8.582;2023-09-19T02:53:04;18.40;99.90
20829;DHT22;10575;50.124;8.582;2023-09-19T02:55:30;18.40;99.90
20829;DHT22;10575;50.124;8.582;2023-09-19T02:57:57;18.50;99.90
20829;DHT22;10575;50.124;8.582;2023-09-19T03:00:23;18.40;99.90
20829;DHT22;10575;50.124;8.582;2023-09-19T03:02:55;18.40;99.90
20829;DHT22;10575;50.124;8.582;2023-09-19T03:05:22;18.50;99.90
20829;DHT22;10575;50.124;8.582;2023-09-19T03:07:49;18.50;99.90
20829;DHT22;10575;50.124;8.582;2023-09-19T03:10:17;18.50;99.90
20829;DHT22;10575;50.124;8.582;2023-09-19T03:12:43;18.50;99.90
20829;DHT22;10575;50.124;8.582;2023-09-19T03:15:09;18.50;99.90
20829;DHT22;10575;50.124;8.582;2023-09-19T03:17:35;18.40;99.90
20829;DHT22;10575;50.124;8.582;2023-09-19T03:20:02;18.40;99.90
20829;DHT22;10575;50.124;8.582;2023-09-19T03:22:28;18.40;99.90
20829;DHT22;10575;50.124;8.582;2023-09-19T03:24:53;18.30;99.90
20829;DHT22;10575;50.124;8.582;2023-09-19T03:27:19;18.30;99.90
20829;DHT22;10575;50.124;8.582;2023-09-19T03:29:46;18.30;99.90
20829;DHT22;10575;50.124;8.582;2023-09-19T03:32:12;18.20;99.90
20829;DHT22;10575;50.124;8.582;2023-09-19T03:34:38;18.20;99.90
20829;DHT22;10575;50.124;8.582;2023-09-19T03:37:11;18.20;99.90
20829;DHT22;10575;50.124;8.582;2023-09-19T03:39:36;18.20;99.90
20829;DHT22;10575;50.124;8.582;2023-09-19T03:42:02;18.10;99.90
20829;DHT22;10575;50.124;8.582;2023-09-19T03:44:29;18.10;99.90
20829;DHT22;10575;50.124;8.582;2023-09-19T03:46:55;18.00;99.90
20829;DHT22;10575;50.124;8.582;2023-09-19T03:49:22;18.00;99.90
20829;DHT22;10575;50.124;8.582;2023-09-19T03:51:53;18.00;99.90
20829;DHT22;10575;50.124;8.582;2023-09-19T03:54:28;17.90;99.90
20829;DHT22;10575;50.124;8.582;2023-09-19T03:56:54;17.80;99.90
20829;DHT22;10575;50.124;8.582;2023-09-19T03:59:20;17.80;99.90
20829;DHT22;10575;50.124;8.582;2023-09-19T04:01:45;17.80;99.90
20829;DHT22;10575;50.124;8.582;2023-09-19T04:04:12;17.70;99.90
20829;DHT22;10575;50.124;8.582;2023-09-19T04:06:39;17.70;99.90
20829;DHT22;10575;50.124;8.582;2023-09-19T04:09:05;17.70;99.90
20829;DHT22;10575;50.124;8.582;2023-09-19T04:11:32;17.80;99.90
20829;DHT22;10575;50.124;8.582;2023-09-19T04:13:58;17.90;99.90
20829;DHT22;10575;50.124;8.582;2023-09-19T04:16:24;17.90;99.90
20829;DHT22;10575;50.124;8.582;2023-09-19T04:18:50;18.00;99.90
20829;DHT22;10575;50.124;8.582;2023-09-19T04:21:15;18.00;99.90
20829;DHT22;10575;50.124;8.582;2023-09-19T04:23:41;17.90;99.90
20829;DHT22;10575;50.124;8.582;2023-09-19T04:26:06;17.80;99.90
20829;DHT22;10575;50.124;8.582;2023-09-19T04:28:32;17.70;99.90
20829;DHT22;10575;50.124;8.582;2023-09-19T04:31:00;17.80;99.90
20829;DHT22;10575;50.124;8.582;2023-09-19T04:33:26;17.80;99.90
20829;DHT22;10575;50.124;8.582;2023-09-19T04:35:54;17.90;99.90
20829;DHT22;10575;50.124;8.582;2023-09-19T04:38:20;17.90;99.90
20829;DHT22;10575;50.124;8.582;2023-09-19T04:40:49;17.90;99.90
20829;DHT22;10575;50.124;8.582;2023-09-19T04:43:14;17.90;99.90
20829;DHT22;10575;50.124;8.582;2023-09-19T04:45:41;17.90;99.90
20829;DHT22;10575;50.124;8.582;2023-09-19T04:48:06;17.80;99.90
20829;DHT22;10575;50.124;8.582;2023-09-19T04:50:34;17.80;99.90
20829;DHT22;10575;50.124;8.582;2023-09-19T04:52:59;17.80;99.90
20829;DHT22;10575;50.124;8.582;2023-09-19T04:55:28;17.80;99.90
20829;DHT22;10575;50.124;8.582;2023-09-19T04:57:58;17.70;99.90
20829;DHT22;10575;50.124;8.582;2023-09-19T05:00:23;17.70;99.90
20829;DHT22;10575;50.124;8.582;2023-09-19T05:02:55;17.60;99.90
20829;DHT22;10575;50.124;8.582;2023-09-19T05:05:21;17.70;99.90
20829;DHT22;10575;50.124;8.582;2023-09-19T05:07:48;17.70;99.90
20829;DHT22;10575;50.124;8.582;2023-09-19T05:10:14;17.60;99.90
20829;DHT22;10575;50.124;8.582;2023-09-19T05:12:41;17.40;99.90
20829;DHT22;10575;50.124;8.582;2023-09-19T05:15:08;17.40;99.90
20829;DHT22;10575;50.124;8.582;2023-09-19T05:17:34;17.60;99.90
20829;DHT22;10575;50.124;8.582;2023-09-19T05:20:00;17.60;99.90
20829;DHT22;10575;50.124;8.582;2023-09-19T05:22:30;17.50;99.90
20829;DHT22;10575;50.124;8.582;2023-09-19T05:24:58;17.60;99.90
20829;DHT22;10575;50.124;8.582;2023-09-19T05:27:23;17.60;99.90
20829;DHT22;10575;50.124;8.582;2023-09-19T05:29:48;17.70;99.90
20829;DHT22;10575;50.124;8.582;2023-09-19T05:32:16;17.70;99.90
20829;DHT22;10575;50.124;8.582;2023-09-19T05:34:43;17.80;99.90
20829;DHT22;10575;50.124;8.582;2023-09-19T05:37:08;17.80;99.90
20829;DHT22;10575;50.124;8.582;2023-09-19T05:39:34;17.80;99.90
20829;DHT22;10575;50.124;8.582;2023-09-19T05:41:59;17.90;99.90
20829;DHT22;10575;50.124;8.582;2023-09-19T05:44:28;17.90;99.90
20829;DHT22;10575;50.124;8.582;2023-09-19T05:46:54;18.00;99.90
20829;DHT22;10575;50.124;8.582;2023-09-19T05:49:22;18.10;99.90
20829;DHT22;10575;50.124;8.582;2023-09-19T05:51:47;18.10;99.90
20829;DHT22;10575;50.124;8.582;2023-09-19T05:54:13;18.20;99.90
20829;DHT22;10575;50.124;8.582;2023-09-19T05:56:38;18.30;99.90
20829;DHT22;10575;50.124;8.582;2023-09-19T05:59:04;18.30;99.90
20829;DHT22;10575;50.124;8.582;2023-09-19T06:01:31;18.30;99.90
20829;DHT22;10575;50.124;8.582;2023-09-19T06:03:58;18.30;99.90
20829;DHT22;10575;50.124;8.582;2023-09-19T06:06:25;18.30;99.90
20829;DHT22;10575;50.124;8.582;2023-09-19T06:08:51;18.40;99.90
20829;DHT22;10575;50.124;8.582;2023-09-19T06:11:16;18.30;99.90
20829;DHT22;10575;50.124;8.582;2023-09-19T06:13:42;18.30;99.90
20829;DHT22;10575;50.124;8.582;2023-09-19T06:16:08;18.30;99.90
20829;DHT22;10575;50.124;8.582;2023-09-19T06:18:35;18.40;99.90
20829;DHT22;10575;50.124;8.582;2023-09-19T06:21:01;18.40;99.90
20829;DHT22;10575;50.124;8.582;2023-09-19T06:23:31;18.50;99.90
20829;DHT22;10575;50.124;8.582;2023-09-19T06:25:56;18.60;99.90
20829;DHT22;10575;50.124;8.582;2023-09-19T06:28:23;18.80;99.90
20829;DHT22;10575;50.124;8.582;2023-09-19T06:30:49;19.00;99.90
20829;DHT22;10575;50.124;8.582;2023-09-19T06:33:15;19.10;99.90
20829;DHT22;10575;50.124;8.582;2023-09-19T06:35:41;19.10;99.90
20829;DHT22;10575;50.124;8.582;2023-09-19T06:38:07;19.30;99.90
20829;DHT22;10575;50.124;8.582;2023-09-19T06:40:34;19.50;99.90
20829;DHT22;10575;50.124;8.582;2023-09-19T06:43:00;19.60;99.90
20829;DHT22;10575;50.124;8.582;2023-09-19T06:45:27;19.40;99.90
20829;DHT22;10575;50.124;8.582;2023-09-19T06:47:53;19.60;99.90
20829;DHT22;10575;50.124;8.582;2023-09-19T06:50:23;19.70;99.90
20829;DHT22;10575;50.124;8.582;2023-09-19T06:52:54;19.80;99.90
20829;DHT22;10575;50.124;8.582;2023-09-19T06:55:21;20.00;99.90
20829;DHT22;10575;50.124;8.582;2023-09-19T06:57:47;20.20;99.90
20829;DHT22;10575;50.124;8.582;2023-09-19T07:00:13;20.20;99.90
20829;DHT22;10575;50.124;8.582;2023-09-19T07:02:58;20.40;99.90
20829;DHT22;10575;50.124;8.582;2023-09-19T07:05:29;20.80;99.90
20829;DHT22;10575;50.124;8.582;2023-09-19T07:07:56;21.00;99.90
20829;DHT22;10575;50.124;8.582;2023-09-19T07:10:24;21.30;99.90
20829;DHT22;10575;50.124;8.582;2023-09-19T07:13:09;21.10;99.90
20829;DHT22;10575;50.124;8.582;2023-09-19T07:15:37;21.00;99.90
20829;DHT22;10575;50.124;8.582;2023-09-19T07:18:06;20.90;99.90
20829;DHT22;10575;50.124;8.582;2023-09-19T07:20:32;21.00;99.90
20829;DHT22;10575;50.124;8.582;2023-09-19T07:22:58;20.80;99.90
20829;DHT22;10575;50.124;8.582;2023-09-19T07:25:30;20.70;99.90
20829;DHT22;10575;50.124;8.582;2023-09-19T07:27:57;20.80;99.90
20829;DHT22;10575;50.124;8.582;2023-09-19T07:30:25;20.80;99.90
20829;DHT22;10575;50.124;8.582;2023-09-19T07:32:51;20.90;99.90
20829;DHT22;10575;50.124;8.582;2023-09-19T07:35:17;21.30;99.90
20829;DHT22;10575;50.124;8.582;2023-09-19T07:37:48;21.70;99.90
20829;DHT22;10575;50.124;8.582;2023-09-19T07:40:18;21.90;99.90
20829;DHT22;10575;50.124;8.582;2023-09-19T07:42:44;21.80;99.90
20829;DHT22;10575;50.124;8.582;2023-09-19T07:45:12;21.60;99.90
20829;DHT22;10575;50.124;8.582;2023-09-19T07:47:49;21.70;99.90
20829;DHT22;10575;50.124;8.582;2023-09-19T07:50:17;21.70;99.90
20829;DHT22;10575;50.124;8.582;2023-09-19T07:52:45;21.60;99.90
20829;DHT22;10575;50.124;8.582;2023-09-19T07:55:10;21.20;99.90
20829;DHT22;10575;50.124;8.582;2023-09-19T07:57:42;21.30;99.90
20829;DHT22;10575;50.124;8.582;2023-09-19T08:00:08;21.30;99.90
20829;DHT22;10575;50.124;8.582;2023-09-19T08:02:36;21.30;99.90
20829;DHT22;10575;50.124;8.582;2023-09-19T08:05:03;22.00;99.90
20829;DHT22;10575;50.124;8.582;2023-09-19T08:07:34;22.50;99.90
20829;DHT22;10575;50.124;8.582;2023-09-19T08:10:02;22.70;99.90
20829;DHT22;10575;50.124;8.582;2023-09-19T08:12:27;22.80;99.90
20829;DHT22;10575;50.124;8.582;2023-09-19T08:14:53;22.70;99.90
20829;DHT22;10575;50.124;8.582;2023-09-19T08:17:18;22.90;99.90
20829;DHT22;10575;50.124;8.582;2023-09-19T08:19:45;23.50;99.90
20829;DHT22;10575;50.124;8.582;2023-09-19T08:22:11;23.50;99.90
20829;DHT22;10575;50.124;8.582;2023-09-19T08:24:37;23.90;99.90
20829;DHT22;10575;50.124;8.582;2023-09-19T08:27:04;24.40;99.90
20829;DHT22;10575;50.124;8.582;2023-09-19T08:29:31;24.00;99.90
20829;DHT22;10575;50.124;8.582;2023-09-19T08:31:57;24.40;99.90
20829;DHT22;10575;50.124;8.582;2023-09-19T08:34:23;25.00;99.90
20829;DHT22;10575;50.124;8.582;2023-09-19T08:36:53;24.80;99.90
20829;DHT22;10575;50.124;8.582;2023-09-19T08:39:24;24.70;99.90
20829;DHT22;10575;50.124;8.582;2023-09-19T08:41:57;25.00;99.90
20829;DHT22;10575;50.124;8.582;2023-09-19T08:44:24;26.00;99.90
20829;DHT22;10575;50.124;8.582;2023-09-19T08:46:54;26.20;99.90
20829;DHT22;10575;50.124;8.582;2023-09-19T08:49:29;26.80;99.90
20829;DHT22;10575;50.124;8.582;2023-09-19T08:52:27;26.80;99.90
20829;DHT22;10575;50.124;8.582;2023-09-19T08:54:52;26.00;99.90
20829;DHT22;10575;50.124;8.582;2023-09-19T08:57:21;25.10;99.90
20829;DHT22;10575;50.124;8.582;2023-09-19T08:59:49;25.60;99.90
20829;DHT22;10575;50.124;8.582;2023-09-19T09:02:15;26.00;99.90
20829;DHT22;10575;50.124;8.582;2023-09-19T09:04:45;25.30;99.90
20829;DHT22;10575;50.124;8.582;2023-09-19T09:07:11;25.80;99.90
20829;DHT22;10575;50.124;8.582;2023-09-19T09:09:38;25.70;99.90
20829;DHT22;10575;50.124;8.582;2023-09-19T09:12:23;26.70;99.90
20829;DHT22;10575;50.124;8.582;2023-09-19T09:14:49;27.50;99.90
20829;DHT22;10575;50.124;8.582;2023-09-19T09:17:18;27.80;99.90
20829;DHT22;10575;50.124;8.582;2023-09-19T09:19:47;27.80;99.90
20829;DHT22;10575;50.124;8.582;2023-09-19T09:22:13;26.90;99.90
20829;DHT22;10575;50.124;8.582;2023-09-19T09:24:51;26.40;99.90
20829;DHT22;10575;50.124;8.582;2023-09-19T09:27:19;26.00;99.90
20829;DHT22;10575;50.124;8.582;2023-09-19T09:29:46;25.50;99.90
20829;DHT22;10575;50.124;8.582;2023-09-19T09:32:40;25.10;99.90
20829;DHT22;10575;50.124;8.582;2023-09-19T09:35:10;24.50;99.90
20829;DHT22;10575;50.124;8.582;2023-09-19T09:37:35;24.80;99.90
20829;DHT22;10575;50.124;8.582;2023-09-19T09:40:04;24.40;99.90
20829;DHT22;10575;50.124;8.582;2023-09-19T09:42:42;24.40;99.90
20829;DHT22;10575;50.124;8.582;2023-09-19T09:47:45;24.40;99.90
20829;DHT22;10575;50.124;8.582;2023-09-19T09:50:27;24.30;99.90
20829;DHT22;10575;50.124;8.582;2023-09-19T09:52:55;24.00;99.90
20829;DHT22;10575;50.124;8.582;2023-09-19T09:55:58;23.80;99.90
20829;DHT22;10575;50.124;8.582;2023-09-19T09:58:25;23.60;99.90
20829;DHT22;10575;50.124;8.582;2023-09-19T10:00:58;23.30;99.90
20829;DHT22;10575;50.124;8.582;2023-09-19T10:03:35;23.10;99.90
20829;DHT22;10575;50.124;8.582;2023-09-19T10:06:05;23.30;99.90
20829;DHT22;10575;50.124;8.582;2023-09-19T10:11:47;23.20;99.90
20829;DHT22;10575;50.124;8.582;2023-09-19T10:14:17;23.20;99.90
20829;DHT22;10575;50.124;8.582;2023-09-19T10:16:48;23.10;99.90
20829;DHT22;10575;50.124;8.582;2023-09-19T10:19:38;22.90;99.90
20829;DHT22;10575;50.124;8.582;2023-09-19T10:22:10;22.90;99.90
20829;DHT22;10575;50.124;8.582;2023-09-19T10:24:38;23.20;99.90
20829;DHT22;10575;50.124;8.582;2023-09-19T10:27:06;23.30;99.90
20829;DHT22;10575;50.124;8.582;2023-09-19T10:29:34;23.30;99.90
20829;DHT22;10575;50.124;8.582;2023-09-19T10:32:01;23.30;99.90
20829;DHT22;10575;50.124;8.582;2023-09-19T10:34:40;23.20;99.90
20829;DHT22;10575;50.124;8.582;2023-09-19T10:37:08;23.30;99.90
20829;DHT22;10575;50.124;8.582;2023-09-19T10:39:39;23.30;99.90
20829;DHT22;10575;50.124;8.582;2023-09-19T10:42:06;22.80;99.90
20829;DHT22;10575;50.124;8.582;2023-09-19T10:44:38;22.70;99.90
20829;DHT22;10575;50.124;8.582;2023-09-19T10:47:09;22.80;99.90
20829;DHT22;10575;50.124;8.582;2023-09-19T10:49:34;22.90;99.90
20829;DHT22;10575;50.124;8.582;2023-09-19T10:52:01;22.90;99.90
20829;DHT22;10575;50.124;8.582;2023-09-19T10:54:31;22.90;99.90
20829;DHT22;10575;50.124;8.582;2023-09-19T10:56:59;22.90;99.90
20829;DHT22;10575;50.124;8.582;2023-09-19T10:59:26;22.50;99.90
20829;DHT22;10575;50.124;8.582;2023-09-19T11:02:00;22.40;99.90
20829;DHT22;10575;50.124;8.582;2023-09-19T11:04:31;22.20;99.90
20829;DHT22;10575;50.124;8.582;2023-09-19T11:07:15;22.00;99.90
20829;DHT22;10575;50.124;8.582;2023-09-19T11:09:54;22.10;99.90
20829;DHT22;10575;50.124;8.582;2023-09-19T11:14:57;22.60;99.90
20829;DHT22;10575;50.124;8.582;2023-09-19T11:17:36;22.70;99.90
20829;DHT22;10575;50.124;8.582;2023-09-19T11:30:38;22.80;99.90
20829;DHT22;10575;50.124;8.582;2023-09-19T11:33:22;23.00;99.90
20829;DHT22;10575;50.124;8.582;2023-09-19T11:36:14;23.10;99.90
20829;DHT22;10575;50.124;8.582;2023-09-19T11:46:33;22.50;99.90
20829;DHT22;10575;50.124;8.582;2023-09-19T11:49:06;22.40;99.90
20829;DHT22;10575;50.124;8.582;2023-09-19T11:51:43;22.60;99.90
20829;DHT22;10575;50.124;8.582;2023-09-19T11:54:13;22.70;99.90
20829;DHT22;10575;50.124;8.582;2023-09-19T11:56:48;22.90;99.90
20829;DHT22;10575;50.124;8.582;2023-09-19T11:59:26;22.80;99.90
20829;DHT22;10575;50.124;8.582;2023-09-19T12:02:06;22.60;99.90
20829;DHT22;10575;50.124;8.582;2023-09-19T12:04:35;22.50;99.90
20829;DHT22;10575;50.124;8.582;2023-09-19T12:07:08;22.20;99.90
20829;DHT22;10575;50.124;8.582;2023-09-19T12:10:03;22.20;99.90
20829;DHT22;10575;50.124;8.582;2023-09-19T12:12:26;22.20;99.90
20829;DHT22;10575;50.124;8.582;2023-09-19T12:14:53;22.30;99.90
20829;DHT22;10575;50.124;8.582;2023-09-19T12:17:19;22.40;99.90
20829;DHT22;10575;50.124;8.582;2023-09-19T12:19:56;22.40;99.90
20829;DHT22;10575;50.124;8.582;2023-09-19T12:22:22;22.30;99.90
20829;DHT22;10575;50.124;8.582;2023-09-19T12:24:47;22.40;99.90
20829;DHT22;10575;50.124;8.582;2023-09-19T12:27:13;22.40;99.90
20829;DHT22;10575;50.124;8.582;2023-09-19T12:29:48;22.40;99.90
20829;DHT22;10575;50.124;8.582;2023-09-19T12:32:15;22.30;99.90
20829;DHT22;10575;50.124;8.582;2023-09-19T12:34:49;22.40;99.90
20829;DHT22;10575;50.124;8.582;2023-09-19T12:37:16;22.40;99.90
20829;DHT22;10575;50.124;8.582;2023-09-19T12:39:49;22.50;99.90
20829;DHT22;10575;50.124;8.582;2023-09-19T12:42:18;22.50;99.90
20829;DHT22;10575;50.124;8.582;2023-09-19T12:44:46;22.30;99.90
20829;DHT22;10575;50.124;8.582;2023-09-19T12:47:16;22.10;99.90
20829;DHT22;10575;50.124;8.582;2023-09-19T12:50:14;21.90;99.90
20829;DHT22;10575;50.124;8.582;2023-09-19T12:52:52;21.90;99.90
20829;DHT22;10575;50.124;8.582;2023-09-19T12:55:22;22.00;99.90
20829;DHT22;10575;50.124;8.582;2023-09-19T12:58:12;22.10;99.90
20829;DHT22;10575;50.124;8.582;2023-09-19T13:00:39;22.10;99.90
20829;DHT22;10575;50.124;8.582;2023-09-19T13:03:28;22.30;99.90
20829;DHT22;10575;50.124;8.582;2023-09-19T13:06:01;22.40;99.90
20829;DHT22;10575;50.124;8.582;2023-09-19T13:08:34;22.30;99.90
20829;DHT22;10575;50.124;8.582;2023-09-19T13:13:37;22.40;99.90
20829;DHT22;10575;50.124;8.582;2023-09-19T13:16:03;22.40;99.90
20829;DHT22;10575;50.124;8.582;2023-09-19T13:21:31;22.50;99.90
20829;DHT22;10575;50.124;8.582;2023-09-19T13:24:21;22.50;99.90
20829;DHT22;10575;50.124;8.582;2023-09-19T13:26:48;22.40;99.90
20829;DHT22;10575;50.124;8.582;2023-09-19T13:29:14;22.40;99.90
20829;DHT22;10575;50.124;8.582;2023-09-19T13:31:48;22.40;99.90
20829;DHT22;10575;50.124;8.582;2023-09-19T13:34:14;22.50;99.90
20829;DHT22;10575;50.124;8.582;2023-09-19T13:36:42;22.50;99.90
20829;DHT22;10575;50.124;8.582;2023-09-19T13:39:14;22.50;99.90
20829;DHT22;10575;50.124;8.582;2023-09-19T13:41:40;22.50;99.90
20829;DHT22;10575;50.124;8.582;2023-09-19T13:44:07;22.50;99.90
20829;DHT22;10575;50.124;8.582;2023-09-19T13:46:33;22.50;99.90
20829;DHT22;10575;50.124;8.582;2023-09-19T13:49:03;22.50;99.90
20829;DHT22;10575;50.124;8.582;2023-09-19T13:51:31;22.60;99.90
20829;DHT22;10575;50.124;8.582;2023-09-19T13:53:56;22.50;99.90
20829;DHT22;10575;50.124;8.582;2023-09-19T13:56:22;22.70;99.90
20829;DHT22;10575;50.124;8.582;2023-09-19T13:58:48;22.70;99.90
20829;DHT22;10575;50.124;8.582;2023-09-19T14:01:13;22.80;99.90
20829;DHT22;10575;50.124;8.582;2023-09-19T14:03:39;22.80;99.90
20829;DHT22;10575;50.124;8.582;2023-09-19T14:06:05;22.80;99.90
20829;DHT22;10575;50.124;8.582;2023-09-19T14:08:31;22.80;99.90
20829;DHT22;10575;50.124;8.582;2023-09-19T14:11:01;22.80;99.90
20829;DHT22;10575;50.124;8.582;2023-09-19T14:13:31;22.70;99.90
20829;DHT22;10575;50.124;8.582;2023-09-19T14:15:57;22.60;99.90
20829;DHT22;10575;50.124;8.582;2023-09-19T14:18:22;22.40;99.90
20829;DHT22;10575;50.124;8.582;2023-09-19T14:20:48;22.50;99.90
20829;DHT22;10575;50.124;8.582;2023-09-19T14:23:13;22.50;99.90
20829;DHT22;10575;50.124;8.582;2023-09-19T14:25:39;22.30;99.90
20829;DHT22;10575;50.124;8.582;2023-09-19T14:28:05;22.20;99.90
20829;DHT22;10575;50.124;8.582;2023-09-19T14:30:33;22.30;99.90
20829;DHT22;10575;50.124;8.582;2023-09-19T14:32:59;22.30;99.90
20829;DHT22;10575;50.124;8.582;2023-09-19T14:35:27;22.20;99.90
20829;DHT22;10575;50.124;8.582;2023-09-19T14:37:53;22.30;99.90
20829;DHT22;10575;50.124;8.582;2023-09-19T14:40:18;22.30;99.90
20829;DHT22;10575;50.124;8.582;2023-09-19T14:42:44;22.20;99.90
20829;DHT22;10575;50.124;8.582;2023-09-19T14:45:13;22.10;99.90
20829;DHT22;10575;50.124;8.582;2023-09-19T14:47:46;22.10;99.90
20829;DHT22;10575;50.124;8.582;2023-09-19T14:50:12;22.10;99.90
20829;DHT22;10575;50.124;8.582;2023-09-19T14:52:38;22.10;99.90
20829;DHT22;10575;50.124;8.582;2023-09-19T14:55:06;22.10;99.90
20829;DHT22;10575;50.124;8.582;2023-09-19T14:57:32;22.10;99.90
20829;DHT22;10575;50.124;8.582;2023-09-19T14:59:57;22.10;99.90
20829;DHT22;10575;50.124;8.582;2023-09-19T15:02:24;22.10;99.90
20829;DHT22;10575;50.124;8.582;2023-09-19T15:04:50;22.20;99.90
20829;DHT22;10575;50.124;8.582;2023-09-19T15:07:16;22.20;99.90
20829;DHT22;10575;50.124;8.582;2023-09-19T15:09:42;22.10;99.90
20829;DHT22;10575;50.124;8.582;2023-09-19T15:12:09;22.00;99.90
20829;DHT22;10575;50.124;8.582;2023-09-19T15:14:35;21.90;99.90
20829;DHT22;10575;50.124;8.582;2023-09-19T15:17:10;21.80;99.90
20829;DHT22;10575;50.124;8.582;2023-09-19T15:19:41;21.80;99.90
20829;DHT22;10575;50.124;8.582;2023-09-19T15:22:07;21.80;99.90
20829;DHT22;10575;50.124;8.582;2023-09-19T15:24:32;21.80;99.90
20829;DHT22;10575;50.124;8.582;2023-09-19T15:26:58;21.70;99.90
20829;DHT22;10575;50.124;8.582;2023-09-19T15:29:23;21.80;99.90
20829;DHT22;10575;50.124;8.582;2023-09-19T15:31:49;21.70;99.90
20829;DHT22;10575;50.124;8.582;2023-09-19T15:34:14;21.90;99.90
20829;DHT22;10575;50.124;8.582;2023-09-19T15:36:41;21.90;99.90
20829;DHT22;10575;50.124;8.582;2023-09-19T15:39:07;22.00;99.90
20829;DHT22;10575;50.124;8.582;2023-09-19T15:41:38;21.90;99.90
20829;DHT22;10575;50.124;8.582;2023-09-19T15:44:04;22.00;99.90
20829;DHT22;10575;50.124;8.582;2023-09-19T15:46:31;22.00;99.90
20829;DHT22;10575;50.124;8.582;2023-09-19T15:49:00;21.90;99.90
20829;DHT22;10575;50.124;8.582;2023-09-19T15:51:26;21.80;99.90
20829;DHT22;10575;50.124;8.582;2023-09-19T15:53:53;21.80;99.90
20829;DHT22;10575;50.124;8.582;2023-09-19T15:56:20;21.80;99.90
20829;DHT22;10575;50.124;8.582;2023-09-19T15:58:53;21.80;99.90
20829;DHT22;10575;50.124;8.582;2023-09-19T16:01:22;21.80;99.90
20829;DHT22;10575;50.124;8.582;2023-09-19T16:03:50;21.90;99.90
20829;DHT22;10575;50.124;8.582;2023-09-19T16:06:19;21.90;99.90
20829;DHT22;10575;50.124;8.582;2023-09-19T16:08:47;21.80;99.90
20829;DHT22;10575;50.124;8.582;2023-09-19T16:11:13;21.90;99.90
20829;DHT22;10575;50.124;8.582;2023-09-19T16:13:39;21.70;99.90
20829;DHT22;10575;50.124;8.582;2023-09-19T16:16:06;21.70;99.90
20829;DHT22;10575;50.124;8.582;2023-09-19T16:18:33;21.80;99.90
20829;DHT22;10575;50.124;8.582;2023-09-19T16:21:08;21.70;99.90